Time;durP1;ratioP1;P1;durP2;ratioP2;P2;SDS_P1;SDS_P2;PMS_P1;PMS_P2;Temp;Humidity;BMP_temperature;BMP_pressure;BME280_temperature;BME280_humidity;BME280_pressure;Samples;Min_cycle;Max_cycle;Signal;HPM_P1;HPM_P2
2022/10/25 00:01:24;;;;;;;13.18;6.88;;;;;;;;;;4967333;28;20451;-66
2022/10/25 00:03:50;;;;;;;13.73;6.78;;;;;;;;;;4949865;28;20408;-66
2022/10/25 00:06:15;;;;;;;14.15;7.72;;;;;;;;;;4967102;28;20064;-66
2022/10/25 00:08:41;;;;;;;13.30;6.88;;;;;;;;;;4952918;28;20124;-68
2022/10/25 00:11:07;;;;;;;13.57;7.13;;;;;;;;;;4970785;28;20391;-66
2022/10/25 00:13:33;;;;;;;16.23;6.97;;;;;;;;;;4952562;28;20415;-66
2022/10/25 00:15:58;;;;;;;11.98;7.03;;;;;;;;;;4970484;28;20033;-66
2022/10/25 00:18:24;;;;;;;16.40;7.70;;;;;;;;;;4970660;28;20536;-66
2022/10/25 00:20:49;;;;;;;13.85;6.93;;;;;;;;;;4970430;28;20432;-66
2022/10/25 00:23:15;;;;;;;15.23;7.18;;;;;;;;;;4970682;28;20467;-66
2022/10/25 00:25:41;;;;;;;10.13;6.07;;;;;;;;;;4970933;28;20543;-65
2022/10/25 00:28:06;;;;;;;11.32;7.05;;;;;;;;;;4970143;28;20049;-65
2022/10/25 00:30:32;;;;;;;13.65;7.00;;;;;;;;;;4970237;28;20499;-65
2022/10/25 00:32:57;;;;;;;12.10;7.07;;;;;;;;;;4970063;28;20049;-65
2022/10/25 00:35:23;;;;;;;14.02;7.60;;;;;;;;;;4971842;28;20352;-65
2022/10/25 00:37:48;;;;;;;16.50;7.10;;;;;;;;;;4970374;28;20520;-66
2022/10/25 00:40:14;;;;;;;13.30;7.30;;;;;;;;;;4969977;28;20103;-66
2022/10/25 00:42:40;;;;;;;14.60;7.40;;;;;;;;;;4970330;28;20358;-65
2022/10/25 00:45:25;;;;;;;15.60;7.70;;;;;;;;;;4969955;28;20333;-65
2022/10/25 00:48:17;;;;;;;16.63;7.90;;;;;;;;;;4969847;28;20460;-66
2022/10/25 00:50:49;;;;;;;14.27;7.20;;;;;;;;;;4951606;28;20436;-65
2022/10/25 00:53:21;;;;;;;16.15;7.50;;;;;;;;;;4951897;28;20387;-65
2022/10/25 00:55:51;;;;;;;15.93;7.40;;;;;;;;;;4969825;28;20461;-66
2022/10/25 00:58:22;;;;;;;15.68;8.07;;;;;;;;;;4951921;28;20426;-65
2022/10/25 01:00:47;;;;;;;13.50;7.50;;;;;;;;;;4969168;28;20518;-66
2022/10/25 01:03:15;;;;;;;12.63;6.88;;;;;;;;;;4961952;28;20445;-65
2022/10/25 01:05:42;;;;;;;14.20;7.88;;;;;;;;;;4932536;28;20049;-65
2022/10/25 01:08:08;;;;;;;18.02;8.82;;;;;;;;;;4949904;28;20381;-65
2022/10/25 01:10:33;;;;;;;15.95;8.23;;;;;;;;;;4950015;28;20434;-65
2022/10/25 01:13:01;;;;;;;15.88;8.52;;;;;;;;;;4950570;28;20433;-65
2022/10/25 01:15:32;;;;;;;10.52;6.70;;;;;;;;;;4950156;28;20424;-65
2022/10/25 01:17:58;;;;;;;11.50;7.00;;;;;;;;;;4931679;28;20415;-65
2022/10/25 01:20:54;;;;;;;12.32;7.68;;;;;;;;;;4951408;28;20318;-65
2022/10/25 01:23:40;;;;;;;10.27;7.20;;;;;;;;;;4908124;28;20481;-65
2022/10/25 01:26:21;;;;;;;13.35;7.45;;;;;;;;;;4949698;28;20065;-65
2022/10/25 01:29:13;;;;;;;13.95;7.53;;;;;;;;;;4949741;28;20396;-66
2022/10/25 01:31:51;;;;;;;12.18;7.28;;;;;;;;;;4931400;28;20058;-65
2022/10/25 01:34:20;;;;;;;13.15;6.57;;;;;;;;;;4950306;28;20498;-65
2022/10/25 01:36:48;;;;;;;18.75;9.10;;;;;;;;;;4949724;28;20339;-65
2022/10/25 01:39:30;;;;;;;14.05;7.97;;;;;;;;;;4949532;28;20477;-65
2022/10/25 01:42:22;;;;;;;14.25;7.70;;;;;;;;;;4949475;28;20428;-65
2022/10/25 01:45:00;;;;;;;13.07;7.13;;;;;;;;;;4945589;28;20349;-66
2022/10/25 01:47:35;;;;;;;11.87;7.03;;;;;;;;;;4931746;28;20470;-65
2022/10/25 01:50:03;;;;;;;17.95;6.90;;;;;;;;;;4931923;28;20440;-65
2022/10/25 01:52:29;;;;;;;19.02;8.57;;;;;;;;;;4949101;28;20033;-65
2022/10/25 01:54:54;;;;;;;11.68;7.57;;;;;;;;;;4950972;28;20487;-65
2022/10/25 01:57:37;;;;;;;11.02;7.25;;;;;;;;;;4949055;28;20575;-65
2022/10/25 02:00:23;;;;;;;16.73;8.20;;;;;;;;;;4949021;28;20420;-65
2022/10/25 02:02:48;;;;;;;14.18;7.30;;;;;;;;;;4931822;28;20046;-66
2022/10/25 02:05:20;;;;;;;12.88;7.50;;;;;;;;;;4949593;28;20456;-65
2022/10/25 02:08:00;;;;;;;14.18;8.23;;;;;;;;;;4931517;28;20499;-65
2022/10/25 02:10:35;;;;;;;11.95;7.35;;;;;;;;;;4948802;28;20038;-65
2022/10/25 02:13:04;;;;;;;13.60;6.78;;;;;;;;;;4931726;28;20372;-65
2022/10/25 02:15:47;;;;;;;13.73;7.53;;;;;;;;;;4949155;28;20464;-65
2022/10/25 02:18:15;;;;;;;18.15;8.02;;;;;;;;;;4948760;28;20452;-65
2022/10/25 02:20:42;;;;;;;12.65;7.95;;;;;;;;;;4931179;28;20509;-65
2022/10/25 02:23:07;;;;;;;14.63;8.77;;;;;;;;;;4930962;28;20415;-65
2022/10/25 02:25:34;;;;;;;12.13;7.72;;;;;;;;;;4948667;28;20127;-65
2022/10/25 02:28:02;;;;;;;13.63;7.65;;;;;;;;;;4931026;28;20521;-65
2022/10/25 02:30:28;;;;;;;14.55;8.23;;;;;;;;;;4929868;28;20133;-65
2022/10/25 02:32:54;;;;;;;14.32;7.60;;;;;;;;;;4931340;28;20452;-65
2022/10/25 02:35:19;;;;;;;12.25;8.73;;;;;;;;;;4948779;28;20416;-65
2022/10/25 02:37:44;;;;;;;12.68;7.53;;;;;;;;;;4948458;28;20388;-65
2022/10/25 02:40:10;;;;;;;17.38;8.73;;;;;;;;;;4948901;28;20564;-65
2022/10/25 02:42:36;;;;;;;14.60;8.43;;;;;;;;;;4948764;28;20038;-65
2022/10/25 02:45:01;;;;;;;14.48;7.50;;;;;;;;;;4948444;28;20314;-65
2022/10/25 02:47:26;;;;;;;11.15;6.70;;;;;;;;;;4948571;28;20469;-65
2022/10/25 02:49:52;;;;;;;12.95;7.88;;;;;;;;;;4950192;28;20030;-65
2022/10/25 02:52:17;;;;;;;12.10;7.13;;;;;;;;;;4948262;28;20445;-65
2022/10/25 02:54:42;;;;;;;17.40;7.93;;;;;;;;;;4948339;28;20524;-65
2022/10/25 02:57:08;;;;;;;14.73;7.50;;;;;;;;;;4950000;28;20568;-65
2022/10/25 02:59:33;;;;;;;11.50;6.95;;;;;;;;;;4948324;28;20397;-65
2022/10/25 03:01:58;;;;;;;16.10;9.48;;;;;;;;;;4948159;28;20445;-65
2022/10/25 03:04:24;;;;;;;11.73;7.15;;;;;;;;;;4948199;28;20499;-65
2022/10/25 03:06:49;;;;;;;11.40;6.35;;;;;;;;;;4950067;28;20464;-65
2022/10/25 03:09:14;;;;;;;11.43;7.22;;;;;;;;;;4948127;28;20044;-65
2022/10/25 03:11:40;;;;;;;13.73;6.93;;;;;;;;;;4948129;28;20408;-65
2022/10/25 03:14:05;;;;;;;14.95;8.35;;;;;;;;;;4948143;28;20459;-65
2022/10/25 03:16:30;;;;;;;16.75;9.48;;;;;;;;;;4948126;28;20323;-65
2022/10/25 03:18:57;;;;;;;18.00;9.25;;;;;;;;;;4948182;28;20459;-65
2022/10/25 03:21:22;;;;;;;18.23;8.85;;;;;;;;;;4948490;28;20333;-65
2022/10/25 03:23:47;;;;;;;19.73;10.18;;;;;;;;;;4947920;28;20322;-65
2022/10/25 03:26:13;;;;;;;15.38;9.68;;;;;;;;;;4947540;28;20124;-65
2022/10/25 03:28:38;;;;;;;15.18;9.15;;;;;;;;;;4947824;28;20364;-65
2022/10/25 03:31:10;;;;;;;14.23;9.10;;;;;;;;;;4947818;28;20485;-65
2022/10/25 03:33:35;;;;;;;14.88;8.57;;;;;;;;;;4947724;28;20519;-65
2022/10/25 03:36:01;;;;;;;13.55;8.75;;;;;;;;;;4947930;28;20488;-65
2022/10/25 03:38:26;;;;;;;15.02;8.27;;;;;;;;;;4948525;28;20403;-65
2022/10/25 03:40:52;;;;;;;16.27;9.73;;;;;;;;;;4949259;28;20421;-65
2022/10/25 03:43:17;;;;;;;16.60;10.00;;;;;;;;;;4950045;28;20334;-65
2022/10/25 03:45:43;;;;;;;17.10;9.35;;;;;;;;;;4951645;28;20390;-65
2022/10/25 03:48:08;;;;;;;17.05;8.65;;;;;;;;;;4951394;28;20057;-65
2022/10/25 03:50:35;;;;;;;14.05;8.35;;;;;;;;;;4951539;28;20432;-65
2022/10/25 03:53:00;;;;;;;16.23;9.27;;;;;;;;;;4951356;28;20345;-65
2022/10/25 03:55:25;;;;;;;17.23;9.93;;;;;;;;;;4952247;28;20376;-66
2022/10/25 03:57:51;;;;;;;12.63;8.07;;;;;;;;;;4951962;28;20448;-65
2022/10/25 04:00:16;;;;;;;17.88;9.65;;;;;;;;;;4951311;28;20422;-65
2022/10/25 04:02:41;;;;;;;18.35;10.50;;;;;;;;;;4951287;28;20479;-65
2022/10/25 04:05:07;;;;;;;18.80;10.23;;;;;;;;;;4951584;28;20480;-65
2022/10/25 04:07:33;;;;;;;17.52;9.15;;;;;;;;;;4951641;28;20372;-65
2022/10/25 04:09:58;;;;;;;26.88;11.18;;;;;;;;;;4950960;28;20460;-65
2022/10/25 04:12:23;;;;;;;17.20;10.18;;;;;;;;;;4951745;28;20038;-65
2022/10/25 04:14:48;;;;;;;16.13;8.75;;;;;;;;;;4951323;28;20512;-65
2022/10/25 04:17:14;;;;;;;23.63;12.20;;;;;;;;;;4950936;28;20494;-65
2022/10/25 04:19:39;;;;;;;20.42;10.27;;;;;;;;;;4952410;28;20376;-65
2022/10/25 04:22:04;;;;;;;18.55;9.38;;;;;;;;;;4953005;28;20333;-65
2022/10/25 04:24:30;;;;;;;18.73;10.55;;;;;;;;;;4950924;28;20520;-65
2022/10/25 04:26:55;;;;;;;21.83;10.35;;;;;;;;;;4950818;28;20391;-65
2022/10/25 04:29:20;;;;;;;20.45;11.30;;;;;;;;;;4952148;28;20349;-65
2022/10/25 04:31:46;;;;;;;19.35;9.80;;;;;;;;;;4950000;28;20503;-65
2022/10/25 04:34:11;;;;;;;16.45;9.10;;;;;;;;;;4951237;28;20087;-65
2022/10/25 04:36:37;;;;;;;18.85;9.75;;;;;;;;;;4950767;28;20429;-65
2022/10/25 04:39:03;;;;;;;14.15;9.30;;;;;;;;;;4934258;28;20368;-65
2022/10/25 04:41:28;;;;;;;24.83;9.88;;;;;;;;;;4952751;28;20389;-66
2022/10/25 04:43:54;;;;;;;21.58;10.63;;;;;;;;;;4948668;28;20108;-65
2022/10/25 04:46:19;;;;;;;19.08;10.38;;;;;;;;;;4950343;28;20434;-65
2022/10/25 04:48:45;;;;;;;15.85;9.15;;;;;;;;;;4950429;28;20346;-65
2022/10/25 04:51:11;;;;;;;20.33;10.63;;;;;;;;;;4951021;28;20056;-65
2022/10/25 04:53:36;;;;;;;20.52;9.68;;;;;;;;;;4949400;28;20322;-65
2022/10/25 04:56:10;;;;;;;18.27;10.02;;;;;;;;;;4932828;28;20392;-65
2022/10/25 04:58:36;;;;;;;20.23;9.82;;;;;;;;;;4949904;28;20157;-65
2022/10/25 05:01:04;;;;;;;18.05;9.35;;;;;;;;;;4950213;28;20445;-65
2022/10/25 05:03:30;;;;;;;18.17;9.95;;;;;;;;;;4950806;28;20437;-66
2022/10/25 05:06:04;;;;;;;19.20;11.43;;;;;;;;;;4950219;28;20460;-65
2022/10/25 05:08:29;;;;;;;17.50;10.25;;;;;;;;;;4950304;28;20176;-66
2022/10/25 05:10:55;;;;;;;20.70;11.38;;;;;;;;;;4950218;28;20508;-65
2022/10/25 05:13:20;;;;;;;14.77;9.75;;;;;;;;;;4949868;28;20437;-65
2022/10/25 05:15:57;;;;;;;22.80;9.73;;;;;;;;;;4950223;28;20480;-65
2022/10/25 05:18:23;;;;;;;17.58;8.82;;;;;;;;;;4949929;28;20393;-65
2022/10/25 05:20:53;;;;;;;22.33;11.10;;;;;;;;;;4949660;28;20372;-65
2022/10/25 05:23:18;;;;;;;18.30;10.60;;;;;;;;;;4949928;28;20463;-65
2022/10/25 05:25:43;;;;;;;18.30;9.60;;;;;;;;;;4949817;28;20449;-65
2022/10/25 05:28:09;;;;;;;17.88;10.32;;;;;;;;;;4949701;28;20522;-65
2022/10/25 05:30:34;;;;;;;20.13;10.15;;;;;;;;;;4950378;28;20443;-65
2022/10/25 05:32:59;;;;;;;16.33;9.05;;;;;;;;;;4949661;28;20437;-65
2022/10/25 05:35:25;;;;;;;18.38;10.75;;;;;;;;;;4949708;28;20176;-65
2022/10/25 05:37:50;;;;;;;17.20;9.98;;;;;;;;;;4949488;28;20499;-65
2022/10/25 05:40:15;;;;;;;16.00;9.57;;;;;;;;;;4949591;28;20360;-65
2022/10/25 05:42:41;;;;;;;26.55;9.95;;;;;;;;;;4949483;28;20449;-65
2022/10/25 05:45:06;;;;;;;13.20;8.73;;;;;;;;;;4949446;28;20532;-65
2022/10/25 05:47:32;;;;;;;19.83;10.07;;;;;;;;;;4950180;28;20453;-66
2022/10/25 05:49:57;;;;;;;18.15;10.60;;;;;;;;;;4949425;28;20508;-65
2022/10/25 05:52:22;;;;;;;16.50;10.05;;;;;;;;;;4949129;28;20457;-65
2022/10/25 05:54:47;;;;;;;15.85;9.55;;;;;;;;;;4950465;28;20497;-65
2022/10/25 05:57:13;;;;;;;18.00;9.82;;;;;;;;;;4950233;28;20429;-65
2022/10/25 05:59:38;;;;;;;18.58;10.88;;;;;;;;;;4950197;28;20456;-65
2022/10/25 06:02:03;;;;;;;18.10;10.63;;;;;;;;;;4949101;28;20448;-65
2022/10/25 06:04:29;;;;;;;18.63;9.57;;;;;;;;;;4949397;28;20388;-65
2022/10/25 06:06:54;;;;;;;15.40;8.68;;;;;;;;;;4951004;28;20389;-65
2022/10/25 06:09:20;;;;;;;19.70;10.55;;;;;;;;;;4948974;28;20080;-65
2022/10/25 06:11:45;;;;;;;13.15;8.70;;;;;;;;;;4949090;28;20045;-65
2022/10/25 06:14:10;;;;;;;17.25;9.88;;;;;;;;;;4948980;28;20077;-65
2022/10/25 06:16:36;;;;;;;15.95;10.20;;;;;;;;;;4949103;28;20447;-65
2022/10/25 06:19:01;;;;;;;19.50;10.27;;;;;;;;;;4950468;28;20381;-65
2022/10/25 06:21:28;;;;;;;22.40;12.30;;;;;;;;;;4607431;28;10002676;-65
2022/10/25 06:23:54;;;;;;;19.42;10.43;;;;;;;;;;4947687;28;20115;-65
2022/10/25 06:26:23;;;;;;;19.77;9.35;;;;;;;;;;4948837;28;20503;-65
2022/10/25 06:28:52;;;;;;;17.33;9.98;;;;;;;;;;4948959;28;20034;-65
2022/10/25 06:31:18;;;;;;;14.80;9.48;;;;;;;;;;4948610;28;20468;-65
2022/10/25 06:33:46;;;;;;;16.00;9.45;;;;;;;;;;4950028;28;20453;-65
2022/10/25 06:36:16;;;;;;;14.80;9.50;;;;;;;;;;4930937;28;20326;-65
2022/10/25 06:38:43;;;;;;;22.40;11.68;;;;;;;;;;4949904;28;20413;-65
2022/10/25 06:41:10;;;;;;;14.23;8.68;;;;;;;;;;4948369;28;20445;-65
2022/10/25 06:43:37;;;;;;;20.88;10.43;;;;;;;;;;4931512;28;20433;-66
2022/10/25 06:46:10;;;;;;;14.88;8.27;;;;;;;;;;4948574;28;20356;-65
2022/10/25 06:48:36;;;;;;;18.42;9.55;;;;;;;;;;4948734;28;20096;-65
2022/10/25 06:51:03;;;;;;;15.50;8.45;;;;;;;;;;4949679;28;20409;-65
2022/10/25 06:53:29;;;;;;;14.18;8.32;;;;;;;;;;4930556;28;20368;-65
2022/10/25 06:55:59;;;;;;;18.50;9.57;;;;;;;;;;4948936;28;20349;-65
2022/10/25 06:58:24;;;;;;;15.88;9.00;;;;;;;;;;4948580;28;20418;-65
2022/10/25 07:00:49;;;;;;;13.23;8.02;;;;;;;;;;4948875;28;20447;-65
2022/10/25 07:03:14;;;;;;;16.55;9.05;;;;;;;;;;4948762;28;20437;-65
2022/10/25 07:05:40;;;;;;;22.92;9.63;;;;;;;;;;4948363;28;20425;-65
2022/10/25 07:08:05;;;;;;;13.25;8.65;;;;;;;;;;4946831;28;20391;-65
2022/10/25 07:10:30;;;;;;;21.38;9.93;;;;;;;;;;4948488;28;20426;-65
2022/10/25 07:12:56;;;;;;;14.85;8.85;;;;;;;;;;4950165;28;20440;-65
2022/10/25 07:15:23;;;;;;;20.88;9.27;;;;;;;;;;4950051;28;20425;-65
2022/10/25 07:17:49;;;;;;;18.42;8.38;;;;;;;;;;4951765;28;20052;-65
2022/10/25 07:20:14;;;;;;;14.70;8.45;;;;;;;;;;4952624;28;20425;-65
2022/10/25 07:22:39;;;;;;;14.25;8.82;;;;;;;;;;4952744;28;20318;-65
2022/10/25 07:25:05;;;;;;;17.08;7.80;;;;;;;;;;4952256;28;20419;-65
2022/10/25 07:27:31;;;;;;;14.40;8.23;;;;;;;;;;4952503;28;20451;-65
2022/10/25 07:29:58;;;;;;;14.35;8.23;;;;;;;;;;4952053;28;20480;-65
2022/10/25 07:32:23;;;;;;;17.00;8.85;;;;;;;;;;4951440;28;20439;-65
2022/10/25 07:34:49;;;;;;;12.68;7.43;;;;;;;;;;4953025;28;20440;-65
2022/10/25 07:37:14;;;;;;;10.18;6.38;;;;;;;;;;4951888;28;20447;-65
2022/10/25 07:39:40;;;;;;;16.65;7.90;;;;;;;;;;4951775;28;20599;-65
2022/10/25 07:42:05;;;;;;;19.50;8.48;;;;;;;;;;4952182;28;20547;-65
2022/10/25 07:44:30;;;;;;;16.42;9.15;;;;;;;;;;4951596;28;20052;-65
2022/10/25 07:46:56;;;;;;;18.13;7.68;;;;;;;;;;4952648;28;20554;-65
2022/10/25 07:49:21;;;;;;;14.52;8.45;;;;;;;;;;4952011;28;20033;-65
2022/10/25 07:51:46;;;;;;;11.68;7.25;;;;;;;;;;4951379;28;20476;-65
2022/10/25 07:54:12;;;;;;;15.60;8.13;;;;;;;;;;4951699;28;20344;-65
2022/10/25 07:56:37;;;;;;;13.50;7.10;;;;;;;;;;4952112;28;20416;-65
2022/10/25 07:59:02;;;;;;;13.35;7.47;;;;;;;;;;4951523;28;20433;-65
2022/10/25 08:01:28;;;;;;;7.85;4.95;;;;;;;;;;4933759;28;20543;-65
2022/10/25 08:03:54;;;;;;;10.98;6.40;;;;;;;;;;4951438;28;20392;-65
2022/10/25 08:06:21;;;;;;;12.20;7.25;;;;;;;;;;4951131;28;20376;-65
2022/10/25 08:08:46;;;;;;;10.82;6.25;;;;;;;;;;4951536;28;20464;-65
2022/10/25 08:11:12;;;;;;;18.15;6.95;;;;;;;;;;4951267;28;20457;-65
2022/10/25 08:13:37;;;;;;;13.48;7.15;;;;;;;;;;4951075;28;20520;-65
2022/10/25 08:16:04;;;;;;;12.70;7.43;;;;;;;;;;4951163;28;20433;-65
2022/10/25 08:18:29;;;;;;;20.70;7.72;;;;;;;;;;4950835;28;20333;-65
2022/10/25 08:20:55;;;;;;;14.95;6.38;;;;;;;;;;4951230;28;20388;-65
2022/10/25 08:23:20;;;;;;;12.20;6.82;;;;;;;;;;4951724;28;20421;-65
2022/10/25 08:25:46;;;;;;;11.05;6.38;;;;;;;;;;4951012;28;20104;-65
2022/10/25 08:28:11;;;;;;;10.95;5.60;;;;;;;;;;4949886;28;20341;-65
2022/10/25 08:30:37;;;;;;;11.18;6.93;;;;;;;;;;4932608;28;20454;-65
2022/10/25 08:33:02;;;;;;;10.65;6.40;;;;;;;;;;4933166;28;20528;-65
2022/10/25 08:35:27;;;;;;;11.75;7.50;;;;;;;;;;4951938;28;20337;-65
2022/10/25 08:37:53;;;;;;;13.43;6.30;;;;;;;;;;4950580;28;20457;-65
2022/10/25 08:40:42;;;;;;;12.95;7.25;;;;;;;;;;4951533;28;20451;-65
2022/10/25 08:43:25;;;;;;;13.80;6.85;;;;;;;;;;4950518;28;20444;-66
2022/10/25 08:45:57;;;;;;;13.20;7.70;;;;;;;;;;4951019;28;20337;-65
2022/10/25 08:48:45;;;;;;;18.55;7.72;;;;;;;;;;4951749;28;20093;-65
2022/10/25 08:51:33;;;;;;;15.05;8.15;;;;;;;;;;4932758;28;20471;-65
2022/10/25 08:54:13;;;;;;;12.90;6.90;;;;;;;;;;4950573;28;20456;-65
2022/10/25 08:56:38;;;;;;;11.85;7.38;;;;;;;;;;4950270;28;20026;-66
2022/10/25 08:59:03;;;;;;;14.25;8.18;;;;;;;;;;4932862;28;20080;-65
2022/10/25 09:01:39;;;;;;;12.73;6.90;;;;;;;;;;4950327;28;20060;-65
2022/10/25 09:04:04;;;;;;;13.82;7.20;;;;;;;;;;4950813;28;20445;-65
2022/10/25 09:06:29;;;;;;;13.13;6.38;;;;;;;;;;4916572;28;20539;-65
2022/10/25 09:09:04;;;;;;;12.65;6.38;;;;;;;;;;4950168;28;20389;-66
2022/10/25 09:11:38;;;;;;;19.05;9.30;;;;;;;;;;4950381;28;20522;-67
2022/10/25 09:14:19;;;;;;;13.07;6.93;;;;;;;;;;4950379;28;20392;-67
2022/10/25 09:16:52;;;;;;;13.95;7.53;;;;;;;;;;4932272;28;20528;-67
2022/10/25 09:19:43;;;;;;;19.75;10.75;;;;;;;;;;4932570;28;20460;-67
2022/10/25 09:22:29;;;;;;;15.05;8.25;;;;;;;;;;4949936;28;20424;-67
2022/10/25 09:25:06;;;;;;;12.75;7.30;;;;;;;;;;4949872;28;20473;-67
2022/10/25 09:27:49;;;;;;;12.70;6.97;;;;;;;;;;4949848;28;20425;-67
2022/10/25 09:30:14;;;;;;;15.75;6.70;;;;;;;;;;4949721;28;20492;-67
2022/10/25 09:32:46;;;;;;;17.65;6.93;;;;;;;;;;4931803;28;20469;-68
2022/10/25 09:35:16;;;;;;;13.40;6.82;;;;;;;;;;4950044;28;20526;-67
2022/10/25 09:37:48;;;;;;;13.18;6.93;;;;;;;;;;4931908;28;20530;-67
2022/10/25 09:40:19;;;;;;;10.93;6.78;;;;;;;;;;4951114;28;20029;-67
2022/10/25 09:42:51;;;;;;;11.30;5.72;;;;;;;;;;4931859;28;20368;-66
2022/10/25 09:45:24;;;;;;;8.50;5.32;;;;;;;;;;4933174;28;20456;-66
2022/10/25 09:47:57;;;;;;;11.98;5.57;;;;;;;;;;4950585;28;20372;-66
2022/10/25 09:50:33;;;;;;;10.90;5.95;;;;;;;;;;4949826;28;20449;-66
2022/10/25 09:53:13;;;;;;;10.18;5.82;;;;;;;;;;4949279;28;20365;-66
2022/10/25 09:55:51;;;;;;;10.35;5.50;;;;;;;;;;4949751;28;20045;-66
2022/10/25 09:58:19;;;;;;;7.47;4.70;;;;;;;;;;4949581;28;20029;-66
2022/10/25 10:00:45;;;;;;;9.87;5.63;;;;;;;;;;4931611;28;20456;-66
2022/10/25 10:03:11;;;;;;;8.57;5.13;;;;;;;;;;4949242;28;20434;-66
2022/10/25 10:05:37;;;;;;;10.65;5.78;;;;;;;;;;4949686;28;20433;-66
2022/10/25 10:08:02;;;;;;;10.15;5.82;;;;;;;;;;4949000;28;20360;-66
2022/10/25 10:10:32;;;;;;;11.70;6.80;;;;;;;;;;4949464;28;20030;-66
2022/10/25 10:13:00;;;;;;;13.73;7.10;;;;;;;;;;4931414;28;20452;-66
2022/10/25 10:15:37;;;;;;;11.45;5.68;;;;;;;;;;4948983;28;20547;-66
2022/10/25 10:18:22;;;;;;;8.82;4.65;;;;;;;;;;4932188;28;20508;-66
2022/10/25 10:21:04;;;;;;;9.95;5.70;;;;;;;;;;4931130;28;20029;-66
2022/10/25 10:23:42;;;;;;;9.45;5.93;;;;;;;;;;4947693;28;20352;-66
2022/10/25 10:26:23;;;;;;;9.15;5.32;;;;;;;;;;4949202;28;20318;-66
2022/10/25 10:29:00;;;;;;;11.10;5.20;;;;;;;;;;4948540;28;20479;-66
2022/10/25 10:31:32;;;;;;;9.60;5.82;;;;;;;;;;4931217;28;20464;-66
2022/10/25 10:33:58;;;;;;;7.45;4.50;;;;;;;;;;4930958;28;20093;-66
2022/10/25 10:36:28;;;;;;;9.93;5.25;;;;;;;;;;4948730;28;20026;-66
2022/10/25 10:39:11;;;;;;;8.18;5.15;;;;;;;;;;4949037;28;20503;-66
2022/10/25 10:41:37;;;;;;;9.75;6.03;;;;;;;;;;4930740;28;20472;-66
2022/10/25 10:44:10;;;;;;;7.57;4.60;;;;;;;;;;4931603;28;20425;-65
2022/10/25 10:46:36;;;;;;;12.15;6.15;;;;;;;;;;4930870;28;20528;-65
2022/10/25 10:49:01;;;;;;;13.38;6.40;;;;;;;;;;4931729;28;20536;-66
2022/10/25 10:51:38;;;;;;;14.07;7.60;;;;;;;;;;4948020;28;20341;-66
2022/10/25 10:54:25;;;;;;;17.38;10.73;;;;;;;;;;4948133;28;20364;-65
2022/10/25 10:56:56;;;;;;;13.82;8.77;;;;;;;;;;4948478;28;20540;-65
2022/10/25 10:59:33;;;;;;;12.82;8.20;;;;;;;;;;4930951;28;20338;-66
2022/10/25 11:02:10;;;;;;;15.60;5.38;;;;;;;;;;4948143;28;20441;-66
2022/10/25 11:04:49;;;;;;;8.70;4.55;;;;;;;;;;4931045;28;20616;-65
2022/10/25 11:07:23;;;;;;;;;;;;;;;;;;4949241;28;20088;-65
2022/10/25 11:09:49;;;;;;;9.85;5.28;;;;;;;;;;4930646;28;20324;-66
2022/10/25 11:12:14;;;;;;;7.13;4.00;;;;;;;;;;4930771;28;20464;-65
2022/10/25 11:14:39;;;;;;;8.50;4.22;;;;;;;;;;4948464;28;20377;-65
2022/10/25 11:17:13;;;;;;;9.30;4.53;;;;;;;;;;4948490;28;20404;-65
2022/10/25 11:20:03;;;;;;;8.90;4.40;;;;;;;;;;4930564;28;20483;-65
2022/10/25 11:22:53;;;;;;;10.27;4.20;;;;;;;;;;4949158;28;20437;-66
2022/10/25 11:25:27;;;;;;;6.93;3.70;;;;;;;;;;4949612;28;20466;-66
2022/10/25 11:28:02;;;;;;;7.00;4.03;;;;;;;;;;4948013;28;20069;-66
2022/10/25 11:30:35;;;;;;;7.30;4.00;;;;;;;;;;4949958;28;20317;-66
2022/10/25 11:33:26;;;;;;;6.18;3.90;;;;;;;;;;4947930;28;20448;-65
2022/10/25 11:35:51;;;;;;;7.72;3.47;;;;;;;;;;4948179;28;20437;-65
2022/10/25 11:38:28;;;;;;;5.65;3.78;;;;;;;;;;4948330;28;20322;-66
2022/10/25 11:41:20;;;;;;;5.80;3.08;;;;;;;;;;4947894;28;20034;-66
2022/10/25 11:44:05;;;;;;;4.97;3.33;;;;;;;;;;4930989;28;20326;-66
2022/10/25 11:46:54;;;;;;;5.97;3.33;;;;;;;;;;4930238;28;20420;-65
2022/10/25 11:49:41;;;;;;;8.98;3.60;;;;;;;;;;4948034;28;20485;-66
2022/10/25 11:52:09;;;;;;;6.55;3.58;;;;;;;;;;4948505;28;20034;-65
2022/10/25 11:54:48;;;;;;;8.45;3.13;;;;;;;;;;4947847;28;20342;-66
2022/10/25 11:57:22;;;;;;;6.70;3.55;;;;;;;;;;4931466;28;20033;-65
2022/10/25 12:00:16;;;;;;;5.82;2.88;;;;;;;;;;4947849;28;20402;-65
2022/10/25 12:02:54;;;;;;;6.75;2.75;;;;;;;;;;4936638;28;20046;-66
2022/10/25 12:05:39;;;;;;;5.80;2.92;;;;;;;;;;4952476;28;20053;-65
2022/10/25 12:08:15;;;;;;;5.85;3.55;;;;;;;;;;4933643;28;20439;-65
2022/10/25 12:10:41;;;;;;;5.70;3.53;;;;;;;;;;4951007;28;20355;-65
2022/10/25 12:13:16;;;;;;;5.45;3.33;;;;;;;;;;4950947;28;20334;-65
2022/10/25 12:15:55;;;;;;;5.60;2.97;;;;;;;;;;4933776;28;20383;-66
2022/10/25 12:19:05;;;;;;;5.88;3.55;;;;;;;;;;4931920;28;20457;-66
2022/10/25 12:21:40;;;;;;;4.82;3.20;;;;;;;;;;4891249;29;20050;-66
2022/10/25 12:24:10;;;;;;;9.57;3.60;;;;;;;;;;4945964;28;20326;-66
2022/10/25 12:26:38;;;;;;;6.03;3.40;;;;;;;;;;4933465;28;20499;-65
2022/10/25 12:29:09;;;;;;;8.83;3.40;;;;;;;;;;4952281;28;20085;-66
2022/10/25 12:31:38;;;;;;;4.82;3.17;;;;;;;;;;4932659;28;20464;-66
2022/10/25 12:34:08;;;;;;;5.60;3.53;;;;;;;;;;4933491;28;20030;-66
2022/10/25 12:36:37;;;;;;;5.72;3.13;;;;;;;;;;4933373;28;20359;-66
2022/10/25 12:39:09;;;;;;;5.25;3.35;;;;;;;;;;4932979;28;20461;-66
2022/10/25 12:41:36;;;;;;;9.55;3.13;;;;;;;;;;4933584;28;20056;-66
2022/10/25 12:44:11;;;;;;;5.10;3.00;;;;;;;;;;4933118;28;20508;-66
2022/10/25 12:47:04;;;;;;;4.43;3.13;;;;;;;;;;4933710;28;20386;-65
2022/10/25 12:50:03;;;;;;;5.68;3.45;;;;;;;;;;4951347;28;20088;-66
2022/10/25 12:52:37;;;;;;;5.03;3.47;;;;;;;;;;4950397;28;20448;-66
2022/10/25 12:55:25;;;;;;;5.15;3.10;;;;;;;;;;4951338;28;20464;-66
2022/10/25 12:57:58;;;;;;;;;;;;;;;;;;4933585;28;20348;-66
2022/10/25 13:00:23;;;;;;;5.15;3.25;;;;;;;;;;4933074;28;20355;-66
2022/10/25 13:03:14;;;;;;;7.50;3.42;;;;;;;;;;4951158;28;20356;-66
2022/10/25 13:06:13;;;;;;;6.78;3.17;;;;;;;;;;4951344;28;20065;-66
2022/10/25 13:08:39;;;;;;;7.32;3.00;;;;;;;;;;4950481;28;20338;-66
2022/10/25 13:11:05;;;;;;;5.00;3.30;;;;;;;;;;4951228;28;20383;-66
2022/10/25 13:13:40;;;;;;;3.75;2.70;;;;;;;;;;4949497;28;20057;-66
2022/10/25 13:16:08;;;;;;;5.18;2.85;;;;;;;;;;4932866;28;20330;-66
2022/10/25 13:18:33;;;;;;;6.83;2.93;;;;;;;;;;4949896;28;20341;-66
2022/10/25 13:21:44;;;;;;;4.22;2.53;;;;;;;;;;4950099;28;20608;-66
2022/10/25 13:24:10;;;;;;;6.43;2.88;;;;;;;;;;4934749;28;20484;-66
2022/10/25 13:27:24;;;;;;;5.90;3.10;;;;;;;;;;4950886;28;20425;-68
2022/10/25 13:30:00;;;;;;;6.30;3.20;;;;;;;;;;4932776;28;20049;-65
2022/10/25 13:32:27;;;;;;;4.43;2.90;;;;;;;;;;4949660;28;20481;-65
2022/10/25 13:34:52;;;;;;;5.72;3.25;;;;;;;;;;4932375;28;20053;-65
2022/10/25 13:37:30;;;;;;;7.88;3.70;;;;;;;;;;4951804;28;20515;-65
2022/10/25 13:40:06;;;;;;;5.10;2.70;;;;;;;;;;4950184;28;20453;-65
2022/10/25 13:42:34;;;;;;;5.43;3.05;;;;;;;;;;4949372;28;20360;-66
2022/10/25 13:45:03;;;;;;;6.77;2.90;;;;;;;;;;4931922;28;20345;-66
2022/10/25 13:47:43;;;;;;;7.47;3.00;;;;;;;;;;4949875;28;20588;-65
2022/10/25 13:50:14;;;;;;;4.88;2.97;;;;;;;;;;4949413;28;20061;-65
2022/10/25 13:53:04;;;;;;;9.30;3.13;;;;;;;;;;4949898;28;20415;-66
2022/10/25 13:55:35;;;;;;;4.88;2.88;;;;;;;;;;4951059;28;20034;-65
2022/10/25 13:58:00;;;;;;;5.57;3.17;;;;;;;;;;4932012;28;20430;-66
2022/10/25 14:00:34;;;;;;;6.28;2.78;;;;;;;;;;4949596;28;20437;-65
2022/10/25 14:03:08;;;;;;;6.55;2.80;;;;;;;;;;4950076;28;20464;-66
2022/10/25 14:05:52;;;;;;;6.80;3.08;;;;;;;;;;4949447;28;20322;-66
2022/10/25 14:08:44;;;;;;;7.05;3.33;;;;;;;;;;4947568;28;20388;-65
2022/10/25 14:11:17;;;;;;;4.00;2.58;;;;;;;;;;4931585;28;20473;-65
2022/10/25 14:14:01;;;;;;;9.27;3.10;;;;;;;;;;4931768;28;20464;-65
2022/10/25 14:16:29;;;;;;;3.92;2.58;;;;;;;;;;4948834;28;20407;-66
2022/10/25 14:18:59;;;;;;;7.22;2.50;;;;;;;;;;4931462;28;20368;-66
2022/10/25 14:21:25;;;;;;;4.57;2.70;;;;;;;;;;4931222;28;20461;-66
2022/10/25 14:23:51;;;;;;;5.25;3.38;;;;;;;;;;4931161;28;20456;-66
2022/10/25 14:26:17;;;;;;;4.47;2.85;;;;;;;;;;4948093;28;20468;-66
2022/10/25 14:28:42;;;;;;;10.55;3.45;;;;;;;;;;4931051;28;20318;-65
2022/10/25 14:31:11;;;;;;;9.30;3.85;;;;;;;;;;4948600;28;20411;-66
2022/10/25 14:34:03;;;;;;;7.60;3.67;;;;;;;;;;4948569;28;20437;-66
2022/10/25 14:36:33;;;;;;;6.57;3.10;;;;;;;;;;4945450;28;20042;-65
2022/10/25 14:39:00;;;;;;;7.05;3.78;;;;;;;;;;4931219;28;20429;-66
2022/10/25 14:41:31;;;;;;;6.22;2.72;;;;;;;;;;4930754;28;20393;-66
2022/10/25 14:43:56;;;;;;;6.68;4.30;;;;;;;;;;4931431;28;20360;-66
2022/10/25 14:46:24;;;;;;;6.22;3.40;;;;;;;;;;4950406;28;20397;-66
2022/10/25 14:48:54;;;;;;;7.50;4.07;;;;;;;;;;4948890;28;20053;-66
2022/10/25 14:51:31;;;;;;;7.40;3.80;;;;;;;;;;4931690;28;20459;-65
2022/10/25 14:54:00;;;;;;;8.95;4.55;;;;;;;;;;4948458;28;20088;-66